Wausa, Nebraska
Current Conditions -  °F | °C
As of 9:55 AM on Tuesday 21 Oct 2014 (Local Time) from KYKN Reporting Station
Clear Clear  
Wind Chill: 50°   Ceiling: Unl
Heat Index: 50°   Visibility: 6mi
Dew Point: 43°   Wind: 6mph
Humidity: 76%   Direction: 100°E
Pressure: 30.06"   Gusts: NA
Location:  42.5°N, 97.54°W
Report Text: KYKN 211455Z AUTO 10005KT 6SM CLR 10/06 A3006 RMK AO1 57003
Loading
Personal Weather Stations






























Interactive Weather Map
Tropical Storm Tracking
New forecast layout! Learn more

10-Day Weather Forecast

Advertisements
Track Severe Weather on mobile